sensor_id;sensor_type;location;lat;lon;timestamp;pressure;altitude;pressure_sealevel;temperature;humidity
46111;BME280;31849;55.992;37.252;2024-02-26T00:03:17;100091.84;;;-1.81;60.53
46111;BME280;31849;55.992;37.252;2024-02-26T00:08:21;100098.19;;;-1.89;60.68
46111;BME280;31849;55.992;37.252;2024-02-26T00:13:27;100090.66;;;-1.88;61.33
46111;BME280;31849;55.992;37.252;2024-02-26T00:18:31;100092.22;;;-1.75;61.26
46111;BME280;31849;55.992;37.252;2024-02-26T00:23:35;100095.03;;;-1.70;61.20
46111;BME280;31849;55.992;37.252;2024-02-26T00:28:40;100092.16;;;-1.77;61.13
46111;BME280;31849;55.992;37.252;2024-02-26T00:33:44;100083.78;;;-1.89;61.42
46111;BME280;31849;55.992;37.252;2024-02-26T00:38:48;100081.78;;;-1.80;61.27
46111;BME280;31849;55.992;37.252;2024-02-26T00:43:55;100090.03;;;-1.84;60.58
46111;BME280;31849;55.992;37.252;2024-02-26T00:48:59;100079.09;;;-1.81;60.92
46111;BME280;31849;55.992;37.252;2024-02-26T00:54:04;100072.53;;;-1.78;60.66
46111;BME280;31849;55.992;37.252;2024-02-26T00:59:09;100075.09;;;-1.78;60.03
46111;BME280;31849;55.992;37.252;2024-02-26T01:04:14;100071.91;;;-1.73;60.17
46111;BME280;31849;55.992;37.252;2024-02-26T01:09:18;100067.44;;;-1.78;59.59
46111;BME280;31849;55.992;37.252;2024-02-26T01:14:23;100067.69;;;-1.73;59.75
46111;BME280;31849;55.992;37.252;2024-02-26T01:19:27;100072.34;;;-1.66;59.29
46111;BME280;31849;55.992;37.252;2024-02-26T01:24:31;100075.34;;;-1.73;58.85
46111;BME280;31849;55.992;37.252;2024-02-26T01:29:36;100076.47;;;-1.68;58.53
46111;BME280;31849;55.992;37.252;2024-02-26T01:34:40;100071.66;;;-1.63;58.82
46111;BME280;31849;55.992;37.252;2024-02-26T01:39:45;100066.38;;;-1.66;58.79
46111;BME280;31849;55.992;37.252;2024-02-26T01:44:50;100060.31;;;-1.83;58.43
46111;BME280;31849;55.992;37.252;2024-02-26T01:49:54;100066.75;;;-1.75;58.65
46111;BME280;31849;55.992;37.252;2024-02-26T01:54:58;100059.53;;;-1.82;57.79
46111;BME280;31849;55.992;37.252;2024-02-26T02:00:07;100052.59;;;-1.85;57.85
46111;BME280;31849;55.992;37.252;2024-02-26T02:05:12;100058.81;;;-1.95;58.11
46111;BME280;31849;55.992;37.252;2024-02-26T02:10:16;100058.53;;;-1.84;58.20
46111;BME280;31849;55.992;37.252;2024-02-26T02:15:22;100051.63;;;-2.02;57.98
46111;BME280;31849;55.992;37.252;2024-02-26T02:20:31;100040.19;;;-1.93;58.01
46111;BME280;31849;55.992;37.252;2024-02-26T02:25:37;100055.56;;;-1.92;57.99
46111;BME280;31849;55.992;37.252;2024-02-26T02:30:41;100051.63;;;-1.87;58.01
46111;BME280;31849;55.992;37.252;2024-02-26T02:35:46;100039.75;;;-1.86;57.72
46111;BME280;31849;55.992;37.252;2024-02-26T02:40:54;100044.16;;;-1.99;57.52
46111;BME280;31849;55.992;37.252;2024-02-26T02:45:58;100045.72;;;-2.01;57.43
46111;BME280;31849;55.992;37.252;2024-02-26T02:51:04;100039.34;;;-2.09;57.61
46111;BME280;31849;55.992;37.252;2024-02-26T02:56:08;100034.41;;;-2.06;57.38
46111;BME280;31849;55.992;37.252;2024-02-26T03:01:13;100039.16;;;-2.12;57.21
46111;BME280;31849;55.992;37.252;2024-02-26T03:06:18;100038.59;;;-2.06;57.29
46111;BME280;31849;55.992;37.252;2024-02-26T03:11:23;100032.47;;;-2.10;56.92
46111;BME280;31849;55.992;37.252;2024-02-26T03:16:29;100024.22;;;-2.06;57.03
46111;BME280;31849;55.992;37.252;2024-02-26T03:21:34;100020.88;;;-2.05;56.87
46111;BME280;31849;55.992;37.252;2024-02-26T03:26:38;100019.63;;;-2.12;56.91
46111;BME280;31849;55.992;37.252;2024-02-26T03:31:43;100024.03;;;-2.09;56.82
46111;BME280;31849;55.992;37.252;2024-02-26T03:36:48;100020.69;;;-2.08;56.59
46111;BME280;31849;55.992;37.252;2024-02-26T03:41:52;100028.31;;;-2.08;56.99
46111;BME280;31849;55.992;37.252;2024-02-26T03:46:56;100020.50;;;-2.11;56.61
46111;BME280;31849;55.992;37.252;2024-02-26T03:52:02;100027.72;;;-2.04;56.69
46111;BME280;31849;55.992;37.252;2024-02-26T03:57:06;100022.09;;;-2.13;56.56
46111;BME280;31849;55.992;37.252;2024-02-26T04:02:10;100015.41;;;-2.11;56.09
46111;BME280;31849;55.992;37.252;2024-02-26T04:07:15;100019.28;;;-2.18;56.30
46111;BME280;31849;55.992;37.252;2024-02-26T04:12:19;100013.50;;;-2.30;56.11
46111;BME280;31849;55.992;37.252;2024-02-26T04:17:24;100015.84;;;-2.33;56.30
46111;BME280;31849;55.992;37.252;2024-02-26T04:22:29;100016.75;;;-2.33;56.15
46111;BME280;31849;55.992;37.252;2024-02-26T04:27:33;100018.69;;;-2.28;56.24
46111;BME280;31849;55.992;37.252;2024-02-26T04:32:37;100028.41;;;-2.21;56.15
46111;BME280;31849;55.992;37.252;2024-02-26T04:37:43;100021.22;;;-2.28;56.13
46111;BME280;31849;55.992;37.252;2024-02-26T04:42:47;100032.13;;;-2.31;56.04
46111;BME280;31849;55.992;37.252;2024-02-26T04:47:51;100027.72;;;-2.34;56.10
46111;BME280;31849;55.992;37.252;2024-02-26T04:52:57;100009.09;;;-2.33;56.25
46111;BME280;31849;55.992;37.252;2024-02-26T04:58:01;100015.25;;;-2.29;55.87
46111;BME280;31849;55.992;37.252;2024-02-26T05:03:05;100019.38;;;-2.31;56.71
46111;BME280;31849;55.992;37.252;2024-02-26T05:08:11;100019.63;;;-2.26;56.42
46111;BME280;31849;55.992;37.252;2024-02-26T05:13:15;100004.69;;;-2.20;55.96
46111;BME280;31849;55.992;37.252;2024-02-26T05:18:20;100006.56;;;-2.18;55.73
46111;BME280;31849;55.992;37.252;2024-02-26T05:23:27;100017.59;;;-2.32;55.77
46111;BME280;31849;55.992;37.252;2024-02-26T05:28:31;99982.13;;;-2.29;55.75
46111;BME280;31849;55.992;37.252;2024-02-26T05:33:35;100008.31;;;-2.17;55.92
46111;BME280;31849;55.992;37.252;2024-02-26T05:38:41;100011.03;;;-1.99;56.32
46111;BME280;31849;55.992;37.252;2024-02-26T05:43:45;100001.97;;;-1.93;55.95
46111;BME280;31849;55.992;37.252;2024-02-26T05:48:50;99999.41;;;-1.93;56.10
46111;BME280;31849;55.992;37.252;2024-02-26T05:53:55;100006.97;;;-1.95;55.83
46111;BME280;31849;55.992;37.252;2024-02-26T05:59:00;100010.47;;;-1.93;55.97
46111;BME280;31849;55.992;37.252;2024-02-26T06:04:04;100020.47;;;-1.81;56.10
46111;BME280;31849;55.992;37.252;2024-02-26T06:09:09;100020.50;;;-1.66;55.90
46111;BME280;31849;55.992;37.252;2024-02-26T06:14:14;100024.44;;;-1.71;55.89
46111;BME280;31849;55.992;37.252;2024-02-26T06:19:20;100022.41;;;-1.77;55.83
46111;BME280;31849;55.992;37.252;2024-02-26T06:24:26;100013.63;;;-1.67;56.02
46111;BME280;31849;55.992;37.252;2024-02-26T06:29:30;100015.63;;;-1.62;55.99
46111;BME280;31849;55.992;37.252;2024-02-26T06:34:34;100018.53;;;-1.55;55.66
46111;BME280;31849;55.992;37.252;2024-02-26T06:39:40;100026.31;;;-1.84;56.04
46111;BME280;31849;55.992;37.252;2024-02-26T06:44:44;100022.69;;;-1.87;55.76
46111;BME280;31849;55.992;37.252;2024-02-26T06:49:48;100007.41;;;-1.41;55.93
46111;BME280;31849;55.992;37.252;2024-02-26T06:54:54;100020.19;;;-1.25;55.59
46111;BME280;31849;55.992;37.252;2024-02-26T06:59:58;100021.75;;;-1.27;55.60
46111;BME280;31849;55.992;37.252;2024-02-26T07:05:06;100015.19;;;-0.90;55.13
46111;BME280;31849;55.992;37.252;2024-02-26T07:10:12;100007.28;;;-1.11;54.80
46111;BME280;31849;55.992;37.252;2024-02-26T07:15:16;100010.09;;;-0.90;54.58
46111;BME280;31849;55.992;37.252;2024-02-26T07:20:21;100016.06;;;-0.90;55.09
46111;BME280;31849;55.992;37.252;2024-02-26T07:25:28;100019.41;;;-0.58;54.64
46111;BME280;31849;55.992;37.252;2024-02-26T07:30:32;100004.81;;;-0.26;53.95
46111;BME280;31849;55.992;37.252;2024-02-26T07:35:36;100017.94;;;-0.36;53.61
46111;BME280;31849;55.992;37.252;2024-02-26T07:40:42;100007.59;;;-0.21;53.48
46111;BME280;31849;55.992;37.252;2024-02-26T07:46:00;100009.44;;;-0.19;53.03
46111;BME280;31849;55.992;37.252;2024-02-26T07:51:04;100010.38;;;-0.16;53.04
46111;BME280;31849;55.992;37.252;2024-02-26T07:56:09;100002.38;;;0.12;52.97
46111;BME280;31849;55.992;37.252;2024-02-26T08:01:13;100012.19;;;0.39;52.22
46111;BME280;31849;55.992;37.252;2024-02-26T08:06:17;100008.22;;;0.09;52.87
46111;BME280;31849;55.992;37.252;2024-02-26T08:11:23;100003.97;;;0.28;52.26
46111;BME280;31849;55.992;37.252;2024-02-26T08:16:27;100001.78;;;0.35;51.85
46111;BME280;31849;55.992;37.252;2024-02-26T08:21:33;99988.84;;;0.88;51.72
46111;BME280;31849;55.992;37.252;2024-02-26T08:26:40;99993.81;;;1.44;50.76
46111;BME280;31849;55.992;37.252;2024-02-26T08:31:44;99993.06;;;1.46;50.24
46111;BME280;31849;55.992;37.252;2024-02-26T08:36:48;99982.84;;;1.27;50.74
46111;BME280;31849;55.992;37.252;2024-02-26T08:41:54;99976.84;;;0.87;50.96
46111;BME280;31849;55.992;37.252;2024-02-26T08:46:59;99970.72;;;1.03;51.27
46111;BME280;31849;55.992;37.252;2024-02-26T08:52:04;99981.69;;;1.00;51.12
46111;BME280;31849;55.992;37.252;2024-02-26T08:57:10;99977.56;;;0.65;50.60
46111;BME280;31849;55.992;37.252;2024-02-26T09:02:14;99975.91;;;1.04;50.83
46111;BME280;31849;55.992;37.252;2024-02-26T09:07:18;99970.09;;;0.89;50.38
46111;BME280;31849;55.992;37.252;2024-02-26T09:12:24;99974.47;;;0.92;50.82
46111;BME280;31849;55.992;37.252;2024-02-26T09:17:28;99974.06;;;0.82;50.86
46111;BME280;31849;55.992;37.252;2024-02-26T09:22:32;99977.78;;;0.51;51.25
46111;BME280;31849;55.992;37.252;2024-02-26T09:27:38;99975.13;;;1.05;51.17
46111;BME280;31849;55.992;37.252;2024-02-26T09:32:46;99990.41;;;1.23;50.83
46111;BME280;31849;55.992;37.252;2024-02-26T09:37:51;99974.53;;;1.13;50.95
46111;BME280;31849;55.992;37.252;2024-02-26T09:42:59;99974.97;;;1.22;50.60
46111;BME280;31849;55.992;37.252;2024-02-26T09:48:05;99966.84;;;1.13;50.56
46111;BME280;31849;55.992;37.252;2024-02-26T09:53:12;99969.63;;;1.37;50.31
46111;BME280;31849;55.992;37.252;2024-02-26T09:58:21;99958.78;;;1.64;50.47
46111;BME280;31849;55.992;37.252;2024-02-26T10:03:30;99966.88;;;1.32;51.13
46111;BME280;31849;55.992;37.252;2024-02-26T10:08:35;99969.28;;;1.49;50.64
46111;BME280;31849;55.992;37.252;2024-02-26T10:13:41;99957.44;;;1.52;50.45
46111;BME280;31849;55.992;37.252;2024-02-26T10:18:46;99952.84;;;1.86;49.90
46111;BME280;31849;55.992;37.252;2024-02-26T10:24:13;99960.38;;;1.40;49.22
46111;BME280;31849;55.992;37.252;2024-02-26T10:29:19;99953.63;;;1.23;50.29
46111;BME280;31849;55.992;37.252;2024-02-26T10:34:23;99950.97;;;1.41;50.04
46111;BME280;31849;55.992;37.252;2024-02-26T10:39:28;99962.13;;;1.42;49.56
46111;BME280;31849;55.992;37.252;2024-02-26T10:44:34;99954.25;;;1.37;50.50
46111;BME280;31849;55.992;37.252;2024-02-26T10:49:38;99935.34;;;1.54;49.99
46111;BME280;31849;55.992;37.252;2024-02-26T10:54:42;99935.34;;;1.75;49.87
46111;BME280;31849;55.992;37.252;2024-02-26T10:59:53;99948.91;;;1.52;49.62
46111;BME280;31849;55.992;37.252;2024-02-26T11:04:59;99932.53;;;1.69;49.87
46111;BME280;31849;55.992;37.252;2024-02-26T11:10:06;99918.88;;;1.70;49.70
46111;BME280;31849;55.992;37.252;2024-02-26T11:15:12;99925.09;;;1.75;49.65
46111;BME280;31849;55.992;37.252;2024-02-26T11:20:17;99925.53;;;2.09;48.89
46111;BME280;31849;55.992;37.252;2024-02-26T11:25:23;99929.63;;;2.04;48.92
46111;BME280;31849;55.992;37.252;2024-02-26T11:30:30;99935.63;;;1.83;49.28
46111;BME280;31849;55.992;37.252;2024-02-26T11:35:36;99933.09;;;1.62;49.77
46111;BME280;31849;55.992;37.252;2024-02-26T11:40:41;99932.19;;;1.62;50.05
46111;BME280;31849;55.992;37.252;2024-02-26T11:45:54;99913.50;;;1.43;50.03
46111;BME280;31849;55.992;37.252;2024-02-26T11:51:04;99929.00;;;1.46;49.54
46111;BME280;31849;55.992;37.252;2024-02-26T11:56:22;99924.31;;;1.36;50.11
46111;BME280;31849;55.992;37.252;2024-02-26T12:01:48;99944.97;;;1.19;50.13
46111;BME280;31849;55.992;37.252;2024-02-26T12:06:55;99917.84;;;1.25;50.54
46111;BME280;31849;55.992;37.252;2024-02-26T12:12:01;99914.72;;;0.91;50.80
46111;BME280;31849;55.992;37.252;2024-02-26T12:17:07;99923.34;;;0.54;51.62
46111;BME280;31849;55.992;37.252;2024-02-26T12:22:23;99922.63;;;0.76;51.55
46111;BME280;31849;55.992;37.252;2024-02-26T12:27:28;99923.47;;;0.77;51.19
46111;BME280;31849;55.992;37.252;2024-02-26T12:32:34;99911.16;;;0.68;51.81
46111;BME280;31849;55.992;37.252;2024-02-26T12:37:39;99908.84;;;0.74;51.66
46111;BME280;31849;55.992;37.252;2024-02-26T12:42:46;99910.22;;;0.85;51.71
46111;BME280;31849;55.992;37.252;2024-02-26T12:47:51;99908.06;;;0.75;52.44
46111;BME280;31849;55.992;37.252;2024-02-26T12:52:55;99906.03;;;0.68;52.01
46111;BME280;31849;55.992;37.252;2024-02-26T12:57:59;99913.63;;;0.66;52.56
46111;BME280;31849;55.992;37.252;2024-02-26T13:03:05;99913.31;;;0.59;52.90
46111;BME280;31849;55.992;37.252;2024-02-26T13:08:09;99903.53;;;0.69;52.32
46111;BME280;31849;55.992;37.252;2024-02-26T13:13:15;99896.81;;;0.72;52.01
46111;BME280;31849;55.992;37.252;2024-02-26T13:18:21;99912.38;;;0.96;52.11
46111;BME280;31849;55.992;37.252;2024-02-26T13:23:25;99906.03;;;1.07;52.50
46111;BME280;31849;55.992;37.252;2024-02-26T13:28:29;99906.47;;;1.18;51.87
46111;BME280;31849;55.992;37.252;2024-02-26T13:33:34;99895.25;;;0.95;52.43
46111;BME280;31849;55.992;37.252;2024-02-26T13:38:38;99894.44;;;0.96;52.38
46111;BME280;31849;55.992;37.252;2024-02-26T13:43:45;99896.38;;;0.62;52.01
46111;BME280;31849;55.992;37.252;2024-02-26T13:48:51;99911.97;;;0.67;52.51
46111;BME280;31849;55.992;37.252;2024-02-26T13:53:57;99925.09;;;0.37;53.07
46111;BME280;31849;55.992;37.252;2024-02-26T13:59:01;99906.34;;;0.37;52.64
46111;BME280;31849;55.992;37.252;2024-02-26T14:04:07;99919.66;;;0.29;52.55
46111;BME280;31849;55.992;37.252;2024-02-26T14:09:12;99900.28;;;0.34;52.82
46111;BME280;31849;55.992;37.252;2024-02-26T14:14:21;99910.59;;;0.36;52.32
46111;BME280;31849;55.992;37.252;2024-02-26T14:19:27;99906.31;;;0.17;52.27
46111;BME280;31849;55.992;37.252;2024-02-26T14:24:31;99912.16;;;-0.04;51.95
46111;BME280;31849;55.992;37.252;2024-02-26T14:29:35;99903.38;;;-0.27;51.91
46111;BME280;31849;55.992;37.252;2024-02-26T14:34:41;99897.84;;;-0.36;52.06
46111;BME280;31849;55.992;37.252;2024-02-26T14:39:45;99902.66;;;-0.42;52.05
46111;BME280;31849;55.992;37.252;2024-02-26T14:44:51;99903.88;;;-0.52;51.76
46111;BME280;31849;55.992;37.252;2024-02-26T14:49:56;99910.13;;;-0.81;51.84
46111;BME280;31849;55.992;37.252;2024-02-26T14:55:01;99914.91;;;-0.87;51.90
46111;BME280;31849;55.992;37.252;2024-02-26T15:00:06;99914.56;;;-0.77;51.95
46111;BME280;31849;55.992;37.252;2024-02-26T15:05:14;99916.50;;;-0.90;52.02
46111;BME280;31849;55.992;37.252;2024-02-26T15:10:19;99921.38;;;-0.94;51.61
46111;BME280;31849;55.992;37.252;2024-02-26T15:15:23;99920.91;;;-1.03;51.55
46111;BME280;31849;55.992;37.252;2024-02-26T15:20:28;99935.91;;;-1.10;50.48
46111;BME280;31849;55.992;37.252;2024-02-26T15:25:32;99942.34;;;-1.16;50.85
46111;BME280;31849;55.992;37.252;2024-02-26T15:30:36;99956.47;;;-1.23;50.88
46111;BME280;31849;55.992;37.252;2024-02-26T15:35:42;99925.34;;;-1.49;50.66
46111;BME280;31849;55.992;37.252;2024-02-26T15:40:47;99958.59;;;-1.31;50.94
46111;BME280;31849;55.992;37.252;2024-02-26T15:45:51;99955.50;;;-1.42;50.52
46111;BME280;31849;55.992;37.252;2024-02-26T15:50:56;99960.19;;;-1.49;50.21
46111;BME280;31849;55.992;37.252;2024-02-26T15:56:01;99955.13;;;-1.64;50.44
46111;BME280;31849;55.992;37.252;2024-02-26T16:01:04;99949.63;;;-1.72;50.40
46111;BME280;31849;55.992;37.252;2024-02-26T16:06:28;99932.69;;;-1.86;49.73
46111;BME280;31849;55.992;37.252;2024-02-26T16:11:33;99951.53;;;-1.99;49.37
46111;BME280;31849;55.992;37.252;2024-02-26T16:16:39;99950.16;;;-2.09;49.64
46111;BME280;31849;55.992;37.252;2024-02-26T16:21:48;99937.25;;;-2.12;49.41
46111;BME280;31849;55.992;37.252;2024-02-26T16:26:52;99934.44;;;-2.32;48.76
46111;BME280;31849;55.992;37.252;2024-02-26T16:31:56;99934.25;;;-2.35;49.70
46111;BME280;31849;55.992;37.252;2024-02-26T16:37:08;99925.16;;;-2.46;49.04
46111;BME280;31849;55.992;37.252;2024-02-26T16:42:12;99931.38;;;-2.56;48.70
46111;BME280;31849;55.992;37.252;2024-02-26T16:47:16;99937.16;;;-2.58;49.00
46111;BME280;31849;55.992;37.252;2024-02-26T16:52:22;99941.97;;;-2.63;49.17
46111;BME280;31849;55.992;37.252;2024-02-26T16:57:26;99943.66;;;-2.63;49.55
46111;BME280;31849;55.992;37.252;2024-02-26T17:02:30;99942.53;;;-2.69;49.09
46111;BME280;31849;55.992;37.252;2024-02-26T17:07:35;99941.44;;;-2.87;49.24
46111;BME280;31849;55.992;37.252;2024-02-26T17:12:39;99971.88;;;-2.89;49.16
46111;BME280;31849;55.992;37.252;2024-02-26T17:17:43;99966.44;;;-2.95;48.66
46111;BME280;31849;55.992;37.252;2024-02-26T17:22:48;99966.34;;;-2.96;48.97
46111;BME280;31849;55.992;37.252;2024-02-26T17:27:52;99970.34;;;-3.00;48.85
46111;BME280;31849;55.992;37.252;2024-02-26T17:32:56;99974.31;;;-3.05;48.87
46111;BME280;31849;55.992;37.252;2024-02-26T17:38:02;99983.22;;;-3.12;48.75
46111;BME280;31849;55.992;37.252;2024-02-26T17:43:06;99987.72;;;-3.08;48.93
46111;BME280;31849;55.992;37.252;2024-02-26T17:48:10;99982.06;;;-3.17;49.36
46111;BME280;31849;55.992;37.252;2024-02-26T17:53:16;99983.25;;;-3.25;49.33
46111;BME280;31849;55.992;37.252;2024-02-26T17:58:21;99978.88;;;-3.28;49.50
46111;BME280;31849;55.992;37.252;2024-02-26T18:03:25;99981.56;;;-3.40;49.63
46111;BME280;31849;55.992;37.252;2024-02-26T18:08:31;99979.78;;;-3.41;49.31
46111;BME280;31849;55.992;37.252;2024-02-26T18:13:36;99980.09;;;-3.49;49.79
46111;BME280;31849;55.992;37.252;2024-02-26T18:18:43;99983.31;;;-3.52;50.37
46111;BME280;31849;55.992;37.252;2024-02-26T18:23:51;99984.91;;;-3.54;50.16
46111;BME280;31849;55.992;37.252;2024-02-26T18:28:55;99967.09;;;-3.54;50.12
46111;BME280;31849;55.992;37.252;2024-02-26T18:33:59;99955.38;;;-3.65;50.15
46111;BME280;31849;55.992;37.252;2024-02-26T18:39:04;99958.63;;;-3.68;50.91
46111;BME280;31849;55.992;37.252;2024-02-26T18:44:12;99961.66;;;-3.74;50.79
46111;BME280;31849;55.992;37.252;2024-02-26T18:49:17;99965.09;;;-3.73;51.12
46111;BME280;31849;55.992;37.252;2024-02-26T18:54:22;99960.69;;;-3.76;50.91
46111;BME280;31849;55.992;37.252;2024-02-26T18:59:26;99974.84;;;-3.66;51.02
46111;BME280;31849;55.992;37.252;2024-02-26T19:04:31;99995.75;;;-3.70;51.63
46111;BME280;31849;55.992;37.252;2024-02-26T19:09:36;99981.22;;;-3.73;51.29
46111;BME280;31849;55.992;37.252;2024-02-26T19:14:41;99986.91;;;-3.77;51.27
46111;BME280;31849;55.992;37.252;2024-02-26T19:19:46;99997.53;;;-3.82;51.58
46111;BME280;31849;55.992;37.252;2024-02-26T19:24:51;100001.03;;;-3.80;51.46
46111;BME280;31849;55.992;37.252;2024-02-26T19:29:55;100000.09;;;-3.82;51.61
46111;BME280;31849;55.992;37.252;2024-02-26T19:35:00;100010.72;;;-3.88;51.82
46111;BME280;31849;55.992;37.252;2024-02-26T19:40:08;100014.47;;;-3.83;51.49
46111;BME280;31849;55.992;37.252;2024-02-26T19:45:13;100006.03;;;-3.95;52.48
46111;BME280;31849;55.992;37.252;2024-02-26T19:50:17;100005.75;;;-4.00;52.47
46111;BME280;31849;55.992;37.252;2024-02-26T19:55:23;100001.25;;;-4.04;52.26
46111;BME280;31849;55.992;37.252;2024-02-26T20:00:30;100010.81;;;-4.00;52.65
46111;BME280;31849;55.992;37.252;2024-02-26T20:05:34;100019.81;;;-4.18;52.90
46111;BME280;31849;55.992;37.252;2024-02-26T20:10:40;100029.97;;;-4.18;52.69
46111;BME280;31849;55.992;37.252;2024-02-26T20:15:44;100019.91;;;-4.17;53.51
46111;BME280;31849;55.992;37.252;2024-02-26T20:20:50;100012.38;;;-4.15;53.44
46111;BME280;31849;55.992;37.252;2024-02-26T20:25:56;100006.22;;;-4.19;53.59
46111;BME280;31849;55.992;37.252;2024-02-26T20:31:01;100018.44;;;-4.13;53.42
46111;BME280;31849;55.992;37.252;2024-02-26T20:36:06;100010.81;;;-4.13;53.64
46111;BME280;31849;55.992;37.252;2024-02-26T20:41:11;100013.63;;;-4.22;53.18
46111;BME280;31849;55.992;37.252;2024-02-26T20:46:15;99991.97;;;-4.30;53.76
46111;BME280;31849;55.992;37.252;2024-02-26T20:51:19;100013.53;;;-4.24;53.51
46111;BME280;31849;55.992;37.252;2024-02-26T20:56:24;100009.22;;;-4.25;54.05
46111;BME280;31849;55.992;37.252;2024-02-26T21:01:29;100019.19;;;-4.28;53.67
46111;BME280;31849;55.992;37.252;2024-02-26T21:06:33;100013.50;;;-4.37;54.07
46111;BME280;31849;55.992;37.252;2024-02-26T21:11:38;100025.69;;;-4.45;54.07
46111;BME280;31849;55.992;37.252;2024-02-26T21:16:42;100015.72;;;-4.55;54.64
46111;BME280;31849;55.992;37.252;2024-02-26T21:21:47;100016.75;;;-4.65;54.76
46111;BME280;31849;55.992;37.252;2024-02-26T21:26:52;100024.69;;;-4.60;54.85
46111;BME280;31849;55.992;37.252;2024-02-26T21:31:56;100046.06;;;-4.56;54.73
46111;BME280;31849;55.992;37.252;2024-02-26T21:37:00;100048.72;;;-4.55;55.34
46111;BME280;31849;55.992;37.252;2024-02-26T21:42:05;100051.09;;;-4.45;54.96
46111;BME280;31849;55.992;37.252;2024-02-26T21:47:10;100045.50;;;-4.52;54.91
46111;BME280;31849;55.992;37.252;2024-02-26T21:52:14;100045.56;;;-4.64;55.60
46111;BME280;31849;55.992;37.252;2024-02-26T21:57:21;100054.25;;;-4.61;54.99
46111;BME280;31849;55.992;37.252;2024-02-26T22:02:25;100057.59;;;-4.62;55.83
46111;BME280;31849;55.992;37.252;2024-02-26T22:07:29;100067.19;;;-4.69;55.54
46111;BME280;31849;55.992;37.252;2024-02-26T22:12:34;100068.53;;;-4.74;56.16
46111;BME280;31849;55.992;37.252;2024-02-26T22:17:38;100071.41;;;-4.70;56.11
46111;BME280;31849;55.992;37.252;2024-02-26T22:22:43;100066.13;;;-4.73;56.09
46111;BME280;31849;55.992;37.252;2024-02-26T22:27:48;100073.22;;;-4.81;55.74
46111;BME280;31849;55.992;37.252;2024-02-26T22:32:53;100074.28;;;-4.77;56.28
46111;BME280;31849;55.992;37.252;2024-02-26T22:37:57;100082.56;;;-4.80;56.27
46111;BME280;31849;55.992;37.252;2024-02-26T22:43:03;100077.06;;;-4.86;56.60
46111;BME280;31849;55.992;37.252;2024-02-26T22:48:08;100098.00;;;-4.77;56.92
46111;BME280;31849;55.992;37.252;2024-02-26T22:53:12;100092.69;;;-4.80;57.04
46111;BME280;31849;55.992;37.252;2024-02-26T22:58:18;100097.69;;;-4.81;56.64
46111;BME280;31849;55.992;37.252;2024-02-26T23:03:22;100103.31;;;-4.73;56.73
46111;BME280;31849;55.992;37.252;2024-02-26T23:08:27;100104.41;;;-4.82;56.98
46111;BME280;31849;55.992;37.252;2024-02-26T23:13:32;100101.78;;;-4.83;56.83
46111;BME280;31849;55.992;37.252;2024-02-26T23:18:36;100104.84;;;-4.75;56.75
46111;BME280;31849;55.992;37.252;2024-02-26T23:23:41;100116.09;;;-4.72;57.13
46111;BME280;31849;55.992;37.252;2024-02-26T23:28:46;100108.63;;;-4.82;57.36
46111;BME280;31849;55.992;37.252;2024-02-26T23:33:50;100110.34;;;-4.81;57.07
46111;BME280;31849;55.992;37.252;2024-02-26T23:38:55;100118.25;;;-4.65;57.53
46111;BME280;31849;55.992;37.252;2024-02-26T23:44:03;100113.09;;;-4.41;56.72
46111;BME280;31849;55.992;37.252;2024-02-26T23:49:07;100110.03;;;-4.24;56.84
46111;BME280;31849;55.992;37.252;2024-02-26T23:54:12;100107.41;;;-4.12;56.70
46111;BME280;31849;55.992;37.252;2024-02-26T23:59:17;100112.34;;;-3.88;56.35
